Time;durP1;ratioP1;P1;durP2;ratioP2;P2;SDS_P1;SDS_P2;PMS_P1;PMS_P2;Temp;Humidity;BMP_temperature;BMP_pressure;BME280_temperature;BME280_humidity;BME280_pressure;Samples;Min_cycle;Max_cycle;Signal;HPM_P1;HPM_P2
2022/06/12 00:01:16;;;;;;;;;;;;;;;11.01;96.73;98647.13;1779293;80;20206;-87
2022/06/12 00:03:42;;;;;;;;;;;;;;;10.99;96.02;98650.11;1781648;80;20206;-86
2022/06/12 00:06:08;;;;;;;;;;;;;;;10.96;96.96;98649.84;1781823;80;21068;-86
2022/06/12 00:08:35;;;;;;;;;;;;;;;10.97;96.45;98652.28;1781840;79;20182;-83
2022/06/12 00:11:01;;;;;;;;;;;;;;;10.96;96.63;98647.95;1774277;80;20187;-86
2022/06/12 00:13:30;;;;;;;;;;;;;;;10.93;97.46;98649.81;1744902;80;20175;-86
2022/06/12 00:15:56;;;;;;;;;;;;;;;10.93;96.96;98651.71;1745781;82;20225;-86
2022/06/12 00:18:22;;;;;;;;;;;;;;;10.91;96.47;98653.88;1781827;80;21094;-86
2022/06/12 00:20:48;;;;;;;;;;;;;;;10.89;96.80;98651.98;1775091;80;20195;-86
2022/06/12 00:23:15;;;;;;;;;;;;;;;10.87;94.41;98654.97;1742447;81;20284;-87
2022/06/12 00:25:41;;;;;;;;;;;;;;;10.80;96.79;98654.94;1777815;80;20176;-83
2022/06/12 00:28:07;;;;;;;;;;;;;;;10.73;96.64;98650.56;1781415;80;20533;-83
2022/06/12 00:30:32;;;;;;;;;;;;;;;10.72;96.91;98644.87;1748475;79;21951;-86
2022/06/12 00:32:58;;;;;;;;;;;;;;;10.67;96.95;98650.27;1775821;79;20234;-83
2022/06/12 00:35:27;;;;;;;;;;;;;;;10.69;96.06;98644.61;1780533;80;20280;-86
2022/06/12 00:37:52;;;;;;;;;;;;;;;10.65;97.05;98640.78;1776686;80;20721;-83
2022/06/12 00:40:19;;;;;;;;;;;;;;;10.60;97.56;98640.77;1778963;80;20270;-86
2022/06/12 00:42:48;;;;;;;;;;;;;;;10.59;97.89;98639.12;1744249;80;21140;-83
2022/06/12 00:45:40;;;;;;;;;;;;;;;10.57;96.59;98634.51;1769079;80;20955;-83
2022/06/12 00:48:13;;;;;;;;;;;;;;;10.56;96.59;98632.34;1781397;80;20216;-84
2022/06/12 00:50:42;;;;;;;;;;;;;;;10.54;96.28;98630.44;1780048;80;20214;-86
2022/06/12 00:53:11;;;;;;;;;;;;;;;10.51;97.68;98629.63;1781853;80;20176;-85
2022/06/12 00:55:47;;;;;;;;;;;;;;;10.48;98.01;98627.42;1781975;80;21194;-82
2022/06/12 00:58:17;;;;;;;;;;;;;;;10.50;98.20;98627.97;1781028;80;20478;-85
2022/06/12 01:00:42;;;;;;;;;;;;;;;10.48;97.27;98618.48;1781590;80;20180;-87
2022/06/12 01:03:08;;;;;;;;;;;;;;;10.48;96.78;98622.55;1739667;81;20272;-83
2022/06/12 01:08:18;;;;;;;;;;;;;;;10.46;96.31;98618.75;1781694;79;21089;-87
2022/06/12 01:10:45;;;;;;;;;;;;;;;10.41;96.84;98618.72;1755411;80;20183;-83
2022/06/12 01:13:20;;;;;;;;;;;;;;;10.41;95.92;98623.59;1780939;79;20180;-86
2022/06/12 01:15:49;;;;;;;;;;;;;;;10.34;98.09;98616.27;1754253;80;20163;-83
2022/06/12 01:18:16;;;;;;;;;;;;;;;10.30;96.93;98615.15;1780824;79;20176;-86
2022/06/12 01:20:52;;;;;;;;;;;;;;;10.18;96.70;98613.98;1781025;80;21137;-86
2022/06/12 01:23:45;;;;;;;;;;;;;;;10.15;97.39;98619.09;1781520;80;20203;-86
2022/06/12 01:26:15;;;;;;;;;;;;;;;10.17;96.27;98618.31;1781969;80;20172;-86
2022/06/12 01:28:49;;;;;;;;;;;;;;;10.15;98.52;98615.03;1778746;80;20187;-83
2022/06/12 01:31:22;;;;;;;;;;;;;;;10.15;98.11;98615.03;1742474;80;20191;-87
2022/06/12 01:34:08;;;;;;;;;;;;;;;10.15;98.23;98613.67;1745312;80;21708;-83
2022/06/12 01:36:49;;;;;;;;;;;;;;;10.05;98.51;98610.38;1780771;80;20188;-86
2022/06/12 01:39:28;;;;;;;;;;;;;;;10.02;98.32;98612.27;1779673;80;20212;-87
2022/06/12 01:42:03;;;;;;;;;;;;;;;9.98;98.14;98608.97;1781400;79;20759;-86
2022/06/12 01:44:42;;;;;;;;;;;;;;;9.94;98.13;98607.34;1781793;80;20195;-83
2022/06/12 01:47:36;;;;;;;;;;;;;;;9.90;99.46;98607.02;1754456;80;20979;-86
2022/06/12 01:50:05;;;;;;;;;;;;;;;9.88;98.03;98607.83;1765985;80;20297;-87
2022/06/12 01:52:55;;;;;;;;;;;;;;;9.84;98.88;98610.80;1781932;79;20191;-82
2022/06/12 01:55:41;;;;;;;;;;;;;;;9.81;99.04;98618.61;1779643;80;20521;-82
2022/06/12 01:58:10;;;;;;;;;;;;;;;9.77;98.92;98616.16;1779897;80;20183;-87
2022/06/12 02:00:36;;;;;;;;;;;;;;;9.70;99.53;98608.79;1782543;80;21307;-86
2022/06/12 02:03:06;;;;;;;;;;;;;;;9.70;100.00;98610.95;1781750;79;20167;-83
2022/06/12 02:06:08;;;;;;;;;;;;;;;9.68;100.00;98613.66;1776446;80;20167;-82
2022/06/12 02:08:40;;;;;;;;;;;;;;;9.70;99.71;98612.31;1781633;79;20159;-83
2022/06/12 02:13:57;;;;;;;;;;;;;;;9.60;100.00;98610.88;1781728;80;21137;-86
2022/06/12 02:16:27;;;;;;;;;;;;;;;9.47;98.69;98616.17;1740133;80;20201;-86
2022/06/12 02:18:55;;;;;;;;;;;;;;;9.41;98.86;98622.64;1752680;80;20207;-83
2022/06/12 02:21:41;;;;;;;;;;;;;;;9.35;99.09;98618.78;1781488;80;20706;-83
2022/06/12 02:24:21;;;;;;;;;;;;;;;9.33;99.63;98617.16;1779969;80;20168;-85
2022/06/12 02:27:03;;;;;;;;;;;;;;;9.36;99.81;98617.17;1760515;80;21113;-86
2022/06/12 02:29:33;;;;;;;;;;;;;;;9.39;100.00;98615.83;1780020;80;20164;-83
2022/06/12 02:31:59;;;;;;;;;;;;;;;9.41;99.76;98621.83;1757321;80;20162;-82
2022/06/12 02:34:28;;;;;;;;;;;;;;;9.36;98.66;98617.17;1755917;80;20198;-82
2022/06/12 02:36:59;;;;;;;;;;;;;;;9.34;98.68;98616.63;1780545;80;20188;-83
2022/06/12 02:39:31;;;;;;;;;;;;;;;9.32;98.34;98620.13;1781455;80;21771;-82
2022/06/12 02:42:02;;;;;;;;;;;;;;;9.27;99.48;98615.47;1781298;79;20187;-83
2022/06/12 02:44:43;;;;;;;;;;;;;;;9.32;99.63;98620.13;1767039;80;20168;-86
2022/06/12 02:47:12;;;;;;;;;;;;;;;9.35;99.13;98622.30;1780971;79;20152;-83
2022/06/12 02:49:39;;;;;;;;;;;;;;;9.31;99.63;98622.02;1756317;80;20187;-83
2022/06/12 02:52:24;;;;;;;;;;;;;;;9.32;99.30;98623.64;1755684;80;21110;-82
2022/06/12 02:55:12;;;;;;;;;;;;;;;9.31;99.91;98615.25;1756326;80;20206;-84
2022/06/12 02:57:41;;;;;;;;;;;;;;;9.30;100.00;98624.95;1781121;79;20200;-86
2022/06/12 03:00:19;;;;;;;;;;;;;;;9.34;99.93;98630.14;1762255;80;20203;-86
2022/06/12 03:03:04;;;;;;;;;;;;;;;9.36;100.00;98632.05;1764393;79;20211;-84
2022/06/12 03:05:35;;;;;;;;;;;;;;;9.36;100.00;98625.83;1756201;80;21317;-86
2022/06/12 03:08:07;;;;;;;;;;;;;;;9.37;100.00;98626.09;1783101;80;20187;-82
2022/06/12 03:10:38;;;;;;;;;;;;;;;9.30;99.42;98621.70;1774430;80;20156;-87
2022/06/12 03:13:06;;;;;;;;;;;;;;;9.24;99.37;98626.81;1782006;79;20167;-82
2022/06/12 03:15:41;;;;;;;;;;;;;;;9.26;98.68;98627.91;1781986;80;20211;-82
2022/06/12 03:18:10;;;;;;;;;;;;;;;9.23;99.26;98631.13;1781788;80;21019;-87
2022/06/12 03:20:42;;;;;;;;;;;;;;;9.23;99.87;98631.95;1781957;80;20180;-83
2022/06/12 03:23:12;;;;;;;;;;;;;;;9.29;99.28;98631.44;1781495;80;20180;-86
2022/06/12 03:25:43;;;;;;;;;;;;;;;9.33;99.31;98625.81;1774051;80;20195;-82
2022/06/12 03:28:19;;;;;;;;;;;;;;;9.40;99.10;98630.98;1779674;79;20584;-82
2022/06/12 03:30:48;;;;;;;;;;;;;;;9.47;98.49;98632.95;1774612;80;21209;-83
2022/06/12 03:33:30;;;;;;;;;;;;;;;9.55;98.18;98627.06;1780419;80;20145;-86
2022/06/12 03:36:04;;;;;;;;;;;;;;;9.63;97.76;98632.00;1781062;80;20589;-82
2022/06/12 03:39:08;;;;;;;;;;;;;;;9.70;98.03;98633.95;1781847;79;20467;-86
2022/06/12 03:41:40;;;;;;;;;;;;;;;9.81;97.67;98628.08;1782055;80;20243;-83
2022/06/12 03:44:28;;;;;;;;;;;;;;;9.91;97.46;98628.14;1775021;80;21121;-83
2022/06/12 03:46:58;;;;;;;;;;;;;;;9.97;97.28;98627.11;1781967;79;20167;-83
2022/06/12 03:49:34;;;;;;;;;;;;;;;10.12;96.54;98627.21;1781451;80;20239;-87
2022/06/12 03:52:03;;;;;;;;;;;;;;;10.19;97.30;98631.05;1744375;82;20174;-82
2022/06/12 03:54:36;;;;;;;;;;;;;;;10.32;96.89;98633.30;1775357;80;20216;-87
2022/06/12 03:59:54;;;;;;;;;;;;;;;10.54;96.13;98635.05;1781497;80;20216;-82
2022/06/12 04:02:21;;;;;;;;;;;;;;;10.69;95.70;98631.05;1781404;80;20211;-83
2022/06/12 04:04:47;;;;;;;;;;;;;;;10.81;95.44;98632.98;1781903;80;20156;-82
2022/06/12 04:07:13;;;;;;;;;;;;;;;10.97;94.58;98637.37;1781926;80;20182;-83
2022/06/12 04:09:42;;;;;;;;;;;;;;;11.04;94.67;98637.66;1770278;80;21979;-87
2022/06/12 04:12:11;;;;;;;;;;;;;;;11.20;94.71;98641.50;1765845;80;20195;-83
2022/06/12 04:14:40;;;;;;;;;;;;;;;11.35;94.04;98640.69;1781494;80;20199;-86
2022/06/12 04:17:06;;;;;;;;;;;;;;;11.54;93.18;98644.53;1758084;80;20242;-86
2022/06/12 04:19:58;;;;;;;;;;;;;;;11.69;92.35;98645.05;1781710;80;20172;-82
2022/06/12 04:22:09;;;;;;;;;;;;;;;11.77;91.75;98646.41;1777799;80;21068;-83
2022/06/12 04:24:42;;;;;;;;;;;;;;;11.85;91.56;98648.06;1781764;80;20227;-87
2022/06/12 04:27:14;;;;;;;;;;;;;;;11.97;91.07;98650.52;1781780;80;20195;-83
2022/06/12 04:29:49;;;;;;;;;;;;;;;12.02;90.80;98649.14;1781985;80;20247;-83
2022/06/12 04:32:15;;;;;;;;;;;;;;;12.00;92.17;98641.00;1781723;80;20479;-83
2022/06/12 04:34:41;;;;;;;;;;;;;;;12.26;92.09;98645.30;1761727;80;21080;-87
2022/06/12 04:37:19;;;;;;;;;;;;;;;12.52;91.95;98637.08;1745903;80;20206;-87
2022/06/12 04:39:45;;;;;;;;;;;;;;;12.75;91.35;98640.53;1759341;80;20136;-87
2022/06/12 04:42:12;;;;;;;;;;;;;;;12.92;89.65;98644.27;1782143;79;20443;-84
2022/06/12 04:44:38;;;;;;;;;;;;;;;13.01;88.63;98640.41;1780049;80;20219;-83
2022/06/12 04:47:04;;;;;;;;;;;;;;;13.08;88.03;98640.38;1781839;80;21157;-87
2022/06/12 04:49:31;;;;;;;;;;;;;;;13.15;88.05;98649.56;1781891;80;20204;-87
2022/06/12 04:51:58;;;;;;;;;;;;;;;13.23;87.59;98644.37;1781686;79;20160;-83
2022/06/12 04:54:24;;;;;;;;;;;;;;;13.33;87.97;98647.59;1781857;80;20622;-86
2022/06/12 04:56:50;;;;;;;;;;;;;;;13.55;88.08;98646.61;1781638;79;20152;-83
2022/06/12 04:59:17;;;;;;;;;;;;;;;13.82;86.89;98645.30;1781680;80;21151;-84
2022/06/12 05:01:43;;;;;;;;;;;;;;;13.89;86.04;98649.06;1781539;79;20159;-83
2022/06/12 05:04:08;;;;;;;;;;;;;;;13.97;86.24;98649.27;1780221;80;20729;-87
2022/06/12 05:06:34;;;;;;;;;;;;;;;14.15;86.09;98649.09;1781730;80;20246;-84
2022/06/12 05:09:01;;;;;;;;;;;;;;;14.26;85.44;98648.44;1781393;80;20192;-87
2022/06/12 05:11:27;;;;;;;;;;;;;;;14.34;85.58;98641.80;1767346;80;21082;-87
2022/06/12 05:13:52;;;;;;;;;;;;;;;14.48;85.62;98642.52;1752539;80;20179;-87
2022/06/12 05:16:28;;;;;;;;;;;;;;;14.64;85.07;98642.05;1753718;80;20305;-86
2022/06/12 05:18:55;;;;;;;;;;;;;;;14.81;84.68;98645.67;1781983;80;20869;-84
2022/06/12 05:21:22;;;;;;;;;;;;;;;14.97;85.45;98645.48;1768929;80;20167;-87
2022/06/12 05:23:48;;;;;;;;;;;;;;;15.21;85.41;98642.96;1739823;80;21087;-83
2022/06/12 05:26:14;;;;;;;;;;;;;;;15.38;84.26;98642.44;1769733;80;20296;-87
2022/06/12 05:28:40;;;;;;;;;;;;;;;15.54;84.47;98643.00;1742368;80;20205;-84
2022/06/12 05:31:06;;;;;;;;;;;;;;;15.76;83.70;98645.16;1781821;80;20778;-83
2022/06/12 05:33:32;;;;;;;;;;;;;;;15.94;83.23;98643.48;1781662;80;20238;-87
2022/06/12 05:35:57;;;;;;;;;;;;;;;16.10;82.17;98642.67;1782083;80;21023;-83
2022/06/12 05:38:24;;;;;;;;;;;;;;;16.18;82.13;98641.98;1781145;79;20174;-87
2022/06/12 05:40:50;;;;;;;;;;;;;;;16.26;81.08;98644.02;1753791;80;20193;-83
2022/06/12 05:43:16;;;;;;;;;;;;;;;16.37;81.32;98648.18;1779101;80;20484;-84
2022/06/12 05:45:42;;;;;;;;;;;;;;;16.63;80.59;98639.73;1753695;80;20189;-87
2022/06/12 05:48:17;;;;;;;;;;;;;;;16.77;79.82;98643.06;1781415;80;21027;-84
2022/06/12 05:50:48;;;;;;;;;;;;;;;16.94;79.62;98643.25;1781893;80;20164;-88
2022/06/12 05:53:14;;;;;;;;;;;;;;;17.06;78.57;98638.61;1779949;79;20179;-84
2022/06/12 05:55:41;;;;;;;;;;;;;;;17.18;78.04;98634.80;1774402;80;20166;-84
2022/06/12 05:58:07;;;;;;;;;;;;;;;17.35;78.50;98634.15;1741615;82;20189;-84
2022/06/12 06:00:33;;;;;;;;;;;;;;;17.53;76.51;98637.28;1768341;80;21195;-84
2022/06/12 06:02:59;;;;;;;;;;;;;;;17.46;75.21;98636.34;1727207;80;20191;-84
2022/06/12 06:05:25;;;;;;;;;;;;;;;17.54;74.79;98635.35;1781952;80;20191;-84
2022/06/12 06:07:51;;;;;;;;;;;;;;;17.65;75.31;98640.27;1781503;79;20180;-88
2022/06/12 06:10:20;;;;;;;;;;;;;;;17.80;74.81;98641.86;1781892;80;20219;-88
2022/06/12 06:12:46;;;;;;;;;;;;;;;17.84;72.48;98640.11;1763135;80;21635;-87
2022/06/12 06:15:12;;;;;;;;;;;;;;;17.84;73.63;98635.99;1760740;80;20232;-88
2022/06/12 06:17:37;;;;;;;;;;;;;;;18.06;74.95;98643.41;1775053;80;20262;-84
2022/06/12 06:20:04;;;;;;;;;;;;;;;18.19;73.01;98643.87;1782537;80;20174;-88
2022/06/12 06:22:30;;;;;;;;;;;;;;;18.27;73.67;98638.98;1750232;80;20141;-88
2022/06/12 06:24:55;;;;;;;;;;;;;;;18.58;74.77;98639.55;1763625;80;21175;-84
2022/06/12 06:27:21;;;;;;;;;;;;;;;18.86;73.00;98638.20;1751614;80;20190;-85
2022/06/12 06:29:47;;;;;;;;;;;;;;;19.00;72.13;98635.34;1742036;80;20229;-88
2022/06/12 06:32:13;;;;;;;;;;;;;;;19.13;70.08;98635.75;1722026;82;20702;-88
2022/06/12 06:34:41;;;;;;;;;;;;;;;19.13;70.23;98635.75;1759852;80;20187;-88
2022/06/12 06:37:08;;;;;;;;;;;;;;;19.17;69.86;98629.07;1782046;79;21056;-87
2022/06/12 06:39:34;;;;;;;;;;;;;;;19.19;69.84;98641.91;1751418;80;20167;-88
2022/06/12 06:42:00;;;;;;;;;;;;;;;19.39;70.71;98645.97;1781961;80;20465;-89
2022/06/12 06:47:10;;;;;;;;;;;;;;;19.85;70.01;98633.55;1782090;80;20489;-88
2022/06/12 06:49:36;;;;;;;;;;;;;;;20.08;69.59;98639.10;1782346;80;21076;-84
2022/06/12 06:52:02;;;;;;;;;;;;;;;20.32;69.88;98638.52;1781950;79;20175;-84
2022/06/12 06:54:28;;;;;;;;;;;;;;;20.48;65.83;98645.14;1775834;80;20237;-85
2022/06/12 06:56:55;;;;;;;;;;;;;;;20.63;65.08;98641.61;1782188;80;20211;-88
2022/06/12 06:59:21;;;;;;;;;;;;;;;20.75;63.04;98636.20;1781796;80;20191;-84
2022/06/12 07:01:47;;;;;;;;;;;;;;;21.00;63.61;98631.12;1782283;79;21128;-89
2022/06/12 07:04:12;;;;;;;;;;;;;;;21.13;65.89;98623.19;1780444;80;20190;-84
2022/06/12 07:06:38;;;;;;;;;;;;;;;21.09;62.80;98626.36;1782202;79;20198;-84
2022/06/12 07:09:04;;;;;;;;;;;;;;;21.32;64.43;98626.89;1781105;80;20290;-84
2022/06/12 07:11:30;;;;;;;;;;;;;;;21.72;65.99;98621.47;1730223;80;20147;-85
2022/06/12 07:13:59;;;;;;;;;;;;;;;21.88;63.84;98624.64;1770335;80;21760;-89
2022/06/12 07:16:26;;;;;;;;;;;;;;;22.07;63.80;98620.55;1761699;80;20192;-89
2022/06/12 07:18:52;;;;;;;;;;;;;;;22.28;63.29;98621.89;1776332;80;20202;-86
2022/06/12 07:21:18;;;;;;;;;;;;;;;22.62;61.11;98616.52;1783193;80;20194;-90
2022/06/12 07:23:44;;;;;;;;;;;;;;;22.86;61.45;98619.89;1781796;80;20370;-85
2022/06/12 07:26:28;;;;;;;;;;;;;;;23.05;61.61;98619.52;1780414;80;21903;-89
2022/06/12 07:28:54;;;;;;;;;;;;;;;23.18;61.46;98608.47;1781673;80;20450;-89
2022/06/12 07:31:20;;;;;;;;;;;;;;;23.23;56.84;98607.63;1762823;80;20198;-85
2022/06/12 07:33:46;;;;;;;;;;;;;;;23.07;52.00;98605.35;1782056;80;20202;-85
2022/06/12 07:36:13;;;;;;;;;;;;;;;23.28;56.29;98607.39;1780440;80;20206;-89
2022/06/12 07:38:39;;;;;;;;;;;;;;;23.71;55.79;98603.72;1782026;80;21674;-84
2022/06/12 07:41:04;;;;;;;;;;;;;;;23.90;56.90;98601.89;1755494;80;20199;-89
2022/06/12 07:43:33;;;;;;;;;;;;;;;23.83;50.37;98602.27;1783205;80;20214;-85
2022/06/12 07:45:59;;;;;;;;;;;;;;;24.02;50.64;98595.50;1782428;80;20506;-85
2022/06/12 07:48:24;;;;;;;;;;;;;;;24.28;50.51;98599.16;1782200;79;20178;-90
2022/06/12 07:50:50;;;;;;;;;;;;;;;24.25;51.18;98599.84;1782243;80;21079;-90
2022/06/12 07:53:16;;;;;;;;;;;;;;;24.32;50.38;98599.27;1782156;79;20183;-85
2022/06/12 07:55:42;;;;;;;;;;;;;;;24.57;49.99;98596.54;1775850;80;20773;-85
2022/06/12 07:58:09;;;;;;;;;;;;;;;24.50;46.45;98596.94;1781933;79;20167;-87
2022/06/12 08:00:36;;;;;;;;;;;;;;;25.11;46.75;98601.98;1780202;80;20160;-84
2022/06/12 08:03:02;;;;;;;;;;;;;;;25.43;45.80;98592.98;1781878;79;21717;-86
2022/06/12 08:05:29;;;;;;;;;;;;;;;25.91;44.76;98586.65;1780256;80;20182;-91
2022/06/12 08:07:55;;;;;;;;;;;;;;;26.33;45.69;98588.02;1762615;80;20179;-90
2022/06/12 08:10:21;;;;;;;;;;;;;;;26.97;48.53;98580.13;1782288;80;20159;-85
2022/06/12 08:12:47;;;;;;;;;;;;;;;27.55;47.24;98577.56;1781882;80;20246;-85
2022/06/12 08:15:15;;;;;;;;;;;;;;;27.78;42.68;98577.48;1760987;80;21170;-85
2022/06/12 08:17:41;;;;;;;;;;;;;;;27.80;43.44;98575.11;1776068;79;20196;-91
2022/06/12 08:20:28;;;;;;;;;;;;;;;28.42;43.96;98574.55;1782279;80;20197;-91
2022/06/12 08:23:00;;;;;;;;;;;;;;;27.87;39.59;98575.20;1742022;80;20166;-85
2022/06/12 08:25:27;;;;;;;;;;;;;;;28.01;39.71;98571.74;1738715;80;20198;-85
2022/06/12 08:27:53;;;;;;;;;;;;;;;28.63;42.15;98572.76;1747343;80;21111;-85
2022/06/12 08:30:18;;;;;;;;;;;;;;;29.09;39.20;98571.50;1748057;80;20757;-91
2022/06/12 08:32:45;;;;;;;;;;;;;;;29.39;42.16;98567.05;1776867;79;20182;-92
2022/06/12 08:35:14;;;;;;;;;;;;;;;29.35;38.74;98571.23;1772236;80;20185;-85
2022/06/12 08:37:40;;;;;;;;;;;;;;;29.82;41.83;98558.27;1779556;80;20191;-85
2022/06/12 08:40:12;;;;;;;;;;;;;;;30.25;40.20;98562.00;1780748;80;21149;-86
2022/06/12 08:42:58;;;;;;;;;;;;;;;30.35;38.83;98558.20;1746541;80;20185;-86
2022/06/12 08:45:27;;;;;;;;;;;;;;;29.82;34.83;98557.47;1772967;80;20525;-92
2022/06/12 08:48:11;;;;;;;;;;;;;;;30.38;38.83;98554.00;1781946;79;20144;-91
2022/06/12 08:50:55;;;;;;;;;;;;;;;30.70;36.87;98547.64;1747249;80;20213;-91
2022/06/12 08:53:40;;;;;;;;;;;;;;;31.03;32.71;98549.19;1773581;81;20987;-90
2022/06/12 08:56:10;;;;;;;;;;;;;;;31.47;34.69;98548.66;1780480;80;20631;-85
2022/06/12 08:58:54;;;;;;;;;;;;;;;31.62;32.37;98553.00;1781859;79;20153;-86
2022/06/12 09:01:20;;;;;;;;;;;;;;;31.61;33.89;98546.39;1779175;80;20164;-91
2022/06/12 09:03:49;;;;;;;;;;;;;;;32.40;31.84;98541.95;1779288;79;20183;-86
2022/06/12 09:06:27;;;;;;;;;;;;;;;32.10;32.78;98545.94;1752396;80;21219;-91
2022/06/12 09:09:25;;;;;;;;;;;;;;;32.69;30.22;98537.48;1777148;80;20513;-86
2022/06/12 09:12:12;;;;;;;;;;;;;;;30.92;30.67;98536.59;1782904;80;20191;-91
2022/06/12 09:15:05;;;;;;;;;;;;;;;31.52;30.79;98536.23;1770575;80;20203;-91
2022/06/12 09:17:35;;;;;;;;;;;;;;;32.14;31.11;98530.70;1748385;80;20517;-87
2022/06/12 09:20:16;;;;;;;;;;;;;;;32.36;31.07;98524.95;1771621;80;21175;-91
2022/06/12 09:22:49;;;;;;;;;;;;;;;31.69;29.87;98529.73;1781647;79;20157;-92
2022/06/12 09:25:35;;;;;;;;;;;;;;;32.07;28.42;98532.16;1781242;80;20171;-92
2022/06/12 09:28:09;;;;;;;;;;;;;;;33.10;28.41;98526.27;1781202;80;20195;-87
2022/06/12 09:30:42;;;;;;;;;;;;;;;33.82;26.68;98521.34;1781401;80;20231;-92
2022/06/12 09:33:11;;;;;;;;;;;;;;;32.86;26.43;98521.11;1780672;80;21111;-87
2022/06/12 09:35:46;;;;;;;;;;;;;;;31.16;26.67;98520.95;1781682;80;20211;-92
2022/06/12 09:38:19;;;;;;;;;;;;;;;33.26;25.74;98515.25;1781311;79;20140;-93
2022/06/12 09:40:57;;;;;;;;;;;;;;;32.64;26.66;98519.69;1778755;80;20453;-87
2022/06/12 09:43:36;;;;;;;;;;;;;;;31.79;26.55;98508.50;1740013;82;20214;-88
2022/06/12 09:46:11;;;;;;;;;;;;;;;33.17;26.64;98506.54;1781354;80;21208;-87
2022/06/12 09:48:58;;;;;;;;;;;;;;;32.19;25.83;98512.64;1779857;79;20152;-87
2022/06/12 09:51:42;;;;;;;;;;;;;;;32.21;25.34;98504.00;1767323;80;20217;-92
2022/06/12 09:54:37;;;;;;;;;;;;;;;32.39;26.18;98498.30;1747709;80;20144;-87
2022/06/12 09:57:12;;;;;;;;;;;;;;;33.06;25.55;98494.63;1756235;80;20210;-88
2022/06/12 09:59:45;;;;;;;;;;;;;;;32.02;25.82;98491.15;1745942;80;21132;-92
2022/06/12 10:02:39;;;;;;;;;;;;;;;32.92;25.65;98489.19;1766929;79;20178;-87
2022/06/12 10:05:29;;;;;;;;;;;;;;;33.81;25.65;98484.63;1775105;80;20180;-87
2022/06/12 10:08:01;;;;;;;;;;;;;;;33.23;25.47;98498.43;1780023;80;20770;-92
2022/06/12 10:10:43;;;;;;;;;;;;;;;33.30;24.39;98485.72;1753793;80;20217;-87
2022/06/12 10:13:11;;;;;;;;;;;;;;;32.99;25.26;98484.30;1774015;80;21215;-88
2022/06/12 10:15:43;;;;;;;;;;;;;;;33.93;23.82;98480.48;1751101;80;20229;-93
2022/06/12 10:18:27;;;;;;;;;;;;;;;34.85;23.12;98487.16;1781162;80;20226;-87
2022/06/12 10:20:55;;;;;;;;;;;;;;;35.07;23.62;98479.92;1778341;80;20224;-87
2022/06/12 10:23:21;;;;;;;;;;;;;;;36.76;21.25;98484.70;1781579;79;20462;-88
2022/06/12 10:25:51;;;;;;;;;;;;;;;34.82;22.14;98474.75;1781823;80;21808;-88
2022/06/12 10:28:33;;;;;;;;;;;;;;;36.04;22.90;98473.78;1781252;79;20156;-91
2022/06/12 10:31:12;;;;;;;;;;;;;;;34.69;23.00;98464.72;1756637;80;20183;-87
2022/06/12 10:33:56;;;;;;;;;;;;;;;34.96;22.28;98454.80;1781780;80;20204;-91
2022/06/12 10:36:30;;;;;;;;;;;;;;;35.08;21.98;98458.98;1768545;80;20167;-93
2022/06/12 10:39:11;;;;;;;;;;;;;;;37.12;22.30;98459.09;1747167;80;21250;-92
2022/06/12 10:41:44;;;;;;;;;;;;;;;37.26;21.37;98451.59;1781746;79;20940;-92
2022/06/12 10:44:16;;;;;;;;;;;;;;;34.41;23.70;98444.95;1774178;80;20137;-87
2022/06/12 10:46:42;;;;;;;;;;;;;;;31.43;26.33;98448.48;1779843;79;20159;-92
2022/06/12 10:49:16;;;;;;;;;;;;;;;32.94;24.33;98440.45;1779451;80;20269;-91
2022/06/12 10:51:42;;;;;;;;;;;;;;;33.61;23.18;98443.00;1740199;80;21053;-90
2022/06/12 10:54:19;;;;;;;;;;;;;;;34.22;23.24;98437.23;1724605;80;20179;-86
2022/06/12 10:57:04;;;;;;;;;;;;;;;31.44;26.54;98449.46;1782058;80;20129;-87
2022/06/12 10:59:48;;;;;;;;;;;;;;;31.19;27.13;98450.16;1779231;80;20207;-87
2022/06/12 11:02:53;;;;;;;;;;;;;;;32.56;25.88;98450.27;1781164;79;20164;-87
2022/06/12 11:05:48;;;;;;;;;;;;;;;32.52;26.90;98450.29;1758990;80;21250;-87
2022/06/12 11:08:36;;;;;;;;;;;;;;;32.59;26.27;98446.63;1774109;80;20257;-92
2022/06/12 11:11:08;;;;;;;;;;;;;;;32.04;26.87;98448.09;1678304;84;20221;-87
2022/06/12 11:14:07;;;;;;;;;;;;;;;30.89;28.67;98437.50;1656809;84;20173;-87
2022/06/12 11:16:48;;;;;;;;;;;;;;;32.92;25.91;98440.08;1720394;82;20189;-87
2022/06/12 11:19:42;;;;;;;;;;;;;;;33.00;24.58;98438.78;1758444;80;22054;-92
2022/06/12 11:22:41;;;;;;;;;;;;;;;34.93;22.41;98437.35;1781304;79;20490;-87
2022/06/12 11:25:19;;;;;;;;;;;;;;;35.13;21.64;98430.33;1722844;82;20210;-87
2022/06/12 11:28:03;;;;;;;;;;;;;;;34.77;23.11;98427.39;1777175;79;20171;-92
2022/06/12 11:30:48;;;;;;;;;;;;;;;34.47;23.58;98426.36;1751354;81;20205;-93
2022/06/12 11:33:48;;;;;;;;;;;;;;;34.82;22.04;98422.68;1771747;80;21125;-87
2022/06/12 11:36:21;;;;;;;;;;;;;;;34.52;23.88;98417.23;1760307;80;20160;-92
2022/06/12 11:38:57;;;;;;;;;;;;;;;35.03;23.16;98422.26;1782136;79;20148;-92
2022/06/12 11:41:36;;;;;;;;;;;;;;;34.32;23.03;98418.58;1770768;80;20160;-93
2022/06/12 11:44:24;;;;;;;;;;;;;;;35.29;24.46;98413.48;1782193;80;20184;-92
2022/06/12 11:47:00;;;;;;;;;;;;;;;32.42;26.60;98417.55;1781932;79;21611;-87
2022/06/12 11:49:42;;;;;;;;;;;;;;;33.15;25.47;98405.08;1780365;80;20183;-91
2022/06/12 11:52:20;;;;;;;;;;;;;;;32.01;26.51;98413.29;1755880;80;20214;-87
2022/06/12 11:55:08;;;;;;;;;;;;;;;32.19;27.24;98401.92;1761604;80;20458;-87
2022/06/12 11:57:56;;;;;;;;;;;;;;;32.73;26.90;98394.58;1717860;82;20191;-87
2022/06/12 12:00:44;;;;;;;;;;;;;;;33.76;25.33;98394.42;1779724;80;21236;-92
2022/06/12 12:03:35;;;;;;;;;;;;;;;33.62;24.69;98401.05;1781603;79;20224;-87
2022/06/12 12:06:07;;;;;;;;;;;;;;;31.13;27.53;98390.25;1781627;80;20222;-87
2022/06/12 12:09:09;;;;;;;;;;;;;;;31.03;27.77;98393.30;1781881;80;20196;-86
2022/06/12 12:11:39;;;;;;;;;;;;;;;31.84;26.40;98391.83;1765646;80;20482;-86
2022/06/12 12:14:05;;;;;;;;;;;;;;;33.17;25.40;98383.02;1754049;80;21031;-92
2022/06/12 12:16:55;;;;;;;;;;;;;;;33.30;24.71;98385.43;1755540;79;20168;-87
2022/06/12 12:19:25;;;;;;;;;;;;;;;33.79;23.04;98378.90;1780328;80;20199;-92
2022/06/12 12:21:59;;;;;;;;;;;;;;;34.81;21.89;98378.88;1760967;80;20574;-87
2022/06/12 12:24:31;;;;;;;;;;;;;;;36.24;22.74;98379.23;1753815;80;20180;-87
2022/06/12 12:26:58;;;;;;;;;;;;;;;37.03;22.68;98379.89;1782272;79;21941;-87
2022/06/12 12:29:26;;;;;;;;;;;;;;;36.31;21.83;98379.63;1781813;80;20168;-87
2022/06/12 12:31:52;;;;;;;;;;;;;;;35.20;24.12;98383.69;1782138;79;20164;-92
2022/06/12 12:34:19;;;;;;;;;;;;;;;33.03;24.97;98375.58;1782024;80;20175;-87
2022/06/12 12:42:36;;;;;;;;;;;;;;;29.29;28.24;98367.69;1781816;80;20514;-90
2022/06/12 12:45:11;;;;;;;;;;;;;;;28.60;29.51;98376.20;1762183;80;20189;-91
2022/06/12 12:47:37;;;;;;;;;;;;;;;27.62;32.28;98374.48;1773618;80;20211;-91
2022/06/12 12:50:15;;;;;;;;;;;;;;;27.29;32.34;98375.36;1782421;80;20179;-87
2022/06/12 12:52:48;;;;;;;;;;;;;;;27.15;33.07;98371.83;1781414;80;21287;-91
2022/06/12 12:55:35;;;;;;;;;;;;;;;30.00;29.18;98358.00;1779235;80;20159;-86
2022/06/12 12:58:04;;;;;;;;;;;;;;;31.70;27.99;98364.69;1720170;80;20189;-87
2022/06/12 13:00:33;;;;;;;;;;;;;;;33.86;25.20;98354.11;1756319;80;20168;-87
2022/06/12 13:03:02;;;;;;;;;;;;;;;33.54;24.57;98357.44;1757392;80;20431;-87
2022/06/12 13:05:37;;;;;;;;;;;;;;;32.85;24.96;98354.59;1781713;80;21027;-88
2022/06/12 13:08:41;;;;;;;;;;;;;;;33.18;26.38;98350.13;1781403;80;20185;-87
2022/06/12 13:11:23;;;;;;;;;;;;;;;33.80;25.86;98346.77;1779779;80;20517;-87
2022/06/12 13:14:05;;;;;;;;;;;;;;;33.50;24.99;98346.27;1780810;79;20692;-91
2022/06/12 13:16:51;;;;;;;;;;;;;;;33.10;23.89;98341.80;1781690;80;20238;-92
2022/06/12 13:19:26;;;;;;;;;;;;;;;32.80;25.07;98340.37;1781251;80;21162;-87
2022/06/12 13:22:02;;;;;;;;;;;;;;;34.34;25.52;98333.95;1780869;80;20211;-91
2022/06/12 13:24:49;;;;;;;;;;;;;;;35.18;23.58;98324.82;1771440;80;20197;-88
2022/06/12 13:27:24;;;;;;;;;;;;;;;34.88;22.20;98339.34;1768253;80;20184;-87
2022/06/12 13:29:50;;;;;;;;;;;;;;;35.13;22.06;98330.38;1767126;80;20163;-92
2022/06/12 13:32:28;;;;;;;;;;;;;;;35.42;21.96;98326.30;1729990;80;21121;-91
2022/06/12 13:34:56;;;;;;;;;;;;;;;36.27;23.24;98329.59;1764363;80;20193;-88